Time;durP1;ratioP1;P1;durP2;ratioP2;P2;SDS_P1;SDS_P2;PMS_P1;PMS_P2;Temp;Humidity;BMP_temperature;BMP_pressure;BME280_temperature;BME280_humidity;BME280_pressure;Samples;Min_cycle;Max_cycle;Signal;HPM_P1;HPM_P2
2022/11/29 00:01:13;;;;;;;32.37;29.07;;;;;;;9.61;82.63;101336.28;5036915;28;20052;-69
2022/11/29 00:03:40;;;;;;;32.87;29.63;;;;;;;9.55;82.78;101338.13;5033948;28;20046;-66
2022/11/29 00:06:10;;;;;;;30.67;28.30;;;;;;;9.45;83.34;101316.50;5045858;28;20696;-66
2022/11/29 00:08:38;;;;;;;31.90;28.35;;;;;;;9.34;83.84;101324.97;5033265;28;20064;-66
2022/11/29 00:12:10;;;;;;;39.83;35.70;;;;;;;9.24;83.64;101311.69;5032136;28;20049;-66
2022/11/29 00:14:04;;;;;;;35.57;31.43;;;;;;;9.37;83.50;101341.19;5033706;28;20380;-66
2022/11/29 00:16:31;;;;;;;36.50;32.60;;;;;;;9.31;83.54;101342.19;5032409;28;20057;-66
2022/11/29 00:18:58;;;;;;;44.73;40.33;;;;;;;9.38;83.32;101343.72;5049065;28;20071;-65
2022/11/29 00:21:25;;;;;;;34.57;30.90;;;;;;;9.34;83.28;101339.75;5051953;28;20053;-66
2022/11/29 00:23:52;;;;;;;35.40;31.60;;;;;;;9.30;83.21;101352.50;5044155;28;20041;-65
2022/11/29 00:26:18;;;;;;;33.70;29.97;;;;;;;9.18;83.20;101335.84;5049641;28;20040;-65
2022/11/29 00:28:45;;;;;;;33.83;30.30;;;;;;;9.15;83.16;101327.97;5036767;28;20526;-65
2022/11/29 00:31:32;;;;;;;33.23;29.73;;;;;;;9.00;83.26;101331.34;5041247;28;20187;-66
2022/11/29 00:34:02;;;;;;;36.13;32.53;;;;;;;9.03;83.45;101332.81;5035803;28;20053;-63
2022/11/29 00:36:29;;;;;;;42.55;38.95;;;;;;;9.04;83.41;101334.47;5035342;28;20049;-65
2022/11/29 00:38:56;;;;;;;41.27;37.50;;;;;;;9.00;83.55;101338.88;5040395;28;20044;-65
2022/11/29 00:41:23;;;;;;;32.73;29.30;;;;;;;8.96;83.66;101323.75;5050574;28;20491;-66
2022/11/29 00:43:50;;;;;;;36.70;32.57;;;;;;;9.03;83.37;101341.16;5051033;28;20215;-65
2022/11/29 00:46:17;;;;;;;32.43;29.30;;;;;;;8.97;83.70;101342.16;5040744;28;20057;-64
2022/11/29 00:48:44;;;;;;;33.03;29.57;;;;;;;9.00;83.81;101341.66;5047624;28;20041;-64
2022/11/29 00:51:11;;;;;;;27.93;25.60;;;;;;;8.99;83.92;101334.38;5042306;28;20041;-65
2022/11/29 00:53:38;;;;;;;31.70;28.37;;;;;;;9.01;83.87;101327.47;5038331;28;20045;-65
2022/11/29 00:56:06;;;;;;;28.90;26.13;;;;;;;9.00;83.99;101330.50;5040356;28;20064;-65
2022/11/29 00:58:35;;;;;;;28.97;26.20;;;;;;;8.84;84.12;101309.88;5038064;28;20044;-65
2022/11/29 01:01:03;;;;;;;29.37;26.33;;;;;;;8.97;84.51;101326.28;5040619;28;20056;-65
2022/11/29 01:03:30;;;;;;;30.70;27.93;;;;;;;8.96;84.43;101318.19;5036669;28;20363;-65
2022/11/29 01:06:06;;;;;;;30.63;27.73;;;;;;;8.96;84.28;101321.81;5047732;28;20045;-64
2022/11/29 01:08:33;;;;;;;31.13;28.40;;;;;;;8.97;84.43;101322.66;5038025;28;20488;-66
2022/11/29 01:11:15;;;;;;;30.93;28.27;;;;;;;8.90;84.42;101308.88;5039594;28;20069;-66
2022/11/29 01:13:42;;;;;;;29.13;26.17;;;;;;;8.90;84.49;101320.03;5032588;28;20049;-65
2022/11/29 01:16:10;;;;;;;35.07;30.33;;;;;;;8.86;84.27;101320.78;5040018;28;20049;-66
2022/11/29 01:18:38;;;;;;;30.57;27.43;;;;;;;8.81;84.37;101315.09;5034339;28;20042;-67
2022/11/29 01:21:11;;;;;;;27.43;25.13;;;;;;;8.66;84.05;101308.16;5044921;28;20060;-68
2022/11/29 01:23:39;;;;;;;38.80;35.40;;;;;;;8.60;84.40;101313.88;5043023;28;20051;-68
2022/11/29 01:26:08;;;;;;;27.20;24.83;;;;;;;8.49;84.58;101305.34;5048228;28;20059;-68
2022/11/29 01:28:36;;;;;;;25.25;22.88;;;;;;;8.40;84.89;101304.03;5048269;28;20047;-68
2022/11/29 01:31:09;;;;;;;28.50;26.17;;;;;;;8.30;84.86;101303.78;5045454;28;20048;-68
2022/11/29 01:33:37;;;;;;;25.57;23.67;;;;;;;8.26;85.25;101314.56;5032485;28;20091;-68
2022/11/29 01:36:04;;;;;;;27.90;25.47;;;;;;;8.17;85.41;101296.59;5032980;28;20045;-68
2022/11/29 01:38:32;;;;;;;22.30;20.80;;;;;;;8.07;85.77;101304.72;5040898;28;20057;-68
2022/11/29 01:41:15;;;;;;;44.97;40.77;;;;;;;8.06;85.75;101301.06;5037787;28;20068;-68
2022/11/29 01:43:57;;;;;;;24.43;22.67;;;;;;;7.99;86.09;101302.31;5037149;28;20041;-68
2022/11/29 01:46:26;;;;;;;27.53;25.00;;;;;;;8.06;86.73;101308.56;5040987;28;20045;-68
2022/11/29 01:48:57;;;;;;;25.33;23.43;;;;;;;8.00;86.76;101304.00;5041387;28;20049;-68
2022/11/29 01:51:26;;;;;;;23.60;21.80;;;;;;;7.88;86.67;101294.84;5034376;28;20041;-69
2022/11/29 01:53:54;;;;;;;21.87;20.40;;;;;;;7.70;86.76;101293.06;5033243;28;20514;-69
2022/11/29 01:56:22;;;;;;;22.67;21.27;;;;;;;7.64;87.16;101294.88;5032655;28;20049;-68
2022/11/29 01:58:49;;;;;;;26.03;24.43;;;;;;;7.62;87.52;101294.25;5035215;28;20051;-68
2022/11/29 02:01:16;;;;;;;23.17;21.63;;;;;;;7.63;87.93;101282.06;5034238;28;20055;-68
2022/11/29 02:03:43;;;;;;;24.97;22.73;;;;;;;7.54;88.10;101277.94;5041243;28;20081;-67
2022/11/29 02:06:10;;;;;;;25.50;23.70;;;;;;;7.57;87.99;101280.25;5033293;28;20083;-68
2022/11/29 02:08:40;;;;;;;25.87;23.77;;;;;;;7.61;88.23;101289.78;5037484;28;20046;-68
2022/11/29 02:11:36;;;;;;;;;;;;;;;7.41;89.06;101297.66;5038788;28;20054;-68
2022/11/29 02:14:19;;;;;;;24.30;22.53;;;;;;;7.59;89.12;101292.00;5038001;28;19943;-68
2022/11/29 02:17:02;;;;;;;40.67;37.27;;;;;;;7.66;88.82;101295.47;5032214;28;20500;-67
2022/11/29 02:19:48;;;;;;;24.50;22.70;;;;;;;7.74;88.59;101294.25;5043585;28;20049;-68
2022/11/29 02:22:31;;;;;;;29.73;27.20;;;;;;;7.70;88.17;101285.56;5042183;28;20128;-68
2022/11/29 02:25:35;;;;;;;26.43;24.20;;;;;;;7.65;88.17;101282.66;5041541;28;20053;-68
2022/11/29 02:28:32;;;;;;;25.03;22.93;;;;;;;7.65;87.93;101274.31;5031672;28;20415;-67
2022/11/29 02:31:51;;;;;;;26.27;24.17;;;;;;;7.58;88.40;101266.09;5037857;28;20048;-67
2022/11/29 02:34:23;;;;;;;24.13;22.33;;;;;;;7.68;88.23;101279.38;5041252;28;20056;-67
2022/11/29 02:37:23;;;;;;;22.73;21.03;;;;;;;7.45;88.25;101257.16;5039077;28;20050;-67
2022/11/29 02:40:08;;;;;;;24.73;22.87;;;;;;;7.61;88.29;101273.13;5040601;28;20049;-68
2022/11/29 02:43:01;;;;;;;24.27;22.40;;;;;;;7.53;88.58;101279.91;5035621;28;20049;-66
2022/11/29 02:45:30;;;;;;;29.23;26.57;;;;;;;7.57;88.55;101274.69;5034136;28;20075;-65
2022/11/29 02:48:10;;;;;;;26.55;24.63;;;;;;;7.42;88.29;101277.97;5037095;28;20053;-66
2022/11/29 02:50:53;;;;;;;23.35;21.83;;;;;;;7.37;89.04;101288.94;5041467;28;20484;-66
2022/11/29 02:53:31;;;;;;;26.27;24.33;;;;;;;7.33;89.11;101271.91;5032856;28;20056;-67
2022/11/29 02:56:12;;;;;;;23.80;21.90;;;;;;;7.40;88.96;101295.97;5039761;28;20053;-67
2022/11/29 02:59:01;;;;;;;23.30;21.57;;;;;;;7.29;88.62;101284.59;5044516;28;20048;-68
2022/11/29 03:02:03;;;;;;;25.27;23.63;;;;;;;7.31;88.90;101276.84;5043685;28;20049;-67
2022/11/29 03:04:38;;;;;;;30.47;27.97;;;;;;;7.38;88.76;101278.69;5040175;28;20157;-67
2022/11/29 03:07:22;;;;;;;23.93;21.77;;;;;;;7.37;88.61;101283.41;5044614;28;20054;-67
2022/11/29 03:09:49;;;;;;;22.37;20.97;;;;;;;7.39;88.80;101280.41;5046485;28;20056;-69
2022/11/29 03:12:29;;;;;;;23.27;21.80;;;;;;;7.37;88.73;101286.19;5036489;28;20049;-70
2022/11/29 03:15:11;;;;;;;24.27;22.35;;;;;;;7.27;88.59;101269.25;5038436;28;20432;-69
2022/11/29 03:17:51;;;;;;;23.47;21.77;;;;;;;7.14;88.84;101267.56;5051841;28;20048;-70
2022/11/29 03:20:48;;;;;;;26.02;24.08;;;;;;;7.01;89.34;101256.66;5039582;28;20527;-70
2022/11/29 03:23:15;;;;;;;25.87;23.83;;;;;;;6.98;90.07;101268.28;5032990;28;20060;-69
2022/11/29 03:25:49;;;;;;;25.73;23.83;;;;;;;6.85;90.08;101247.97;5045561;28;20766;-68
2022/11/29 03:28:36;;;;;;;23.70;22.13;;;;;;;6.87;90.03;101256.91;5045650;28;20045;-69
2022/11/29 03:31:13;;;;;;;27.13;24.93;;;;;;;6.72;90.66;101241.78;5042119;28;20488;-69
2022/11/29 03:33:52;;;;;;;24.20;22.53;;;;;;;6.78;90.69;101252.78;5034648;28;20053;-69
2022/11/29 03:37:07;;;;;;;23.93;22.20;;;;;;;6.70;90.84;101255.91;5039788;28;20052;-69
2022/11/29 03:40:06;;;;;;;25.30;23.80;;;;;;;6.74;91.03;101253.50;5040099;28;20420;-69
2022/11/29 03:42:41;;;;;;;23.30;21.80;;;;;;;6.85;91.41;101258.25;5040791;28;20049;-68
2022/11/29 03:45:17;;;;;;;25.83;23.67;;;;;;;6.91;91.32;101242.56;5034061;28;20049;-69
2022/11/29 03:47:55;;;;;;;27.13;23.83;;;;;;;6.97;91.12;101244.34;5031425;28;20115;-68
2022/11/29 03:50:33;;;;;;;26.17;24.13;;;;;;;6.84;91.04;101224.09;5038315;28;20124;-67
2022/11/29 03:53:35;;;;;;;23.93;22.07;;;;;;;6.95;90.92;101235.44;5039766;28;20048;-67
2022/11/29 03:56:21;;;;;;;25.40;23.13;;;;;;;7.09;91.39;101243.28;5030586;28;20056;-69
2022/11/29 03:58:55;;;;;;;23.07;21.43;;;;;;;7.29;91.20;101236.53;5039486;28;20041;-67
2022/11/29 04:01:49;;;;;;;24.37;22.80;;;;;;;7.33;90.64;101233.03;5036409;28;20419;-68
2022/11/29 04:04:46;;;;;;;26.23;24.30;;;;;;;7.38;90.34;101232.28;5042902;28;20425;-68
2022/11/29 04:07:39;;;;;;;22.47;21.17;;;;;;;7.39;90.30;101235.94;5040867;28;20060;-68
2022/11/29 04:10:57;;;;;;;25.23;23.63;;;;;;;7.25;89.77;101225.06;5042885;28;20057;-69
2022/11/29 04:13:30;;;;;;;25.13;23.30;;;;;;;7.11;90.04;101212.47;5027110;28;20045;-69
2022/11/29 04:16:03;;;;;;;22.60;20.87;;;;;;;7.03;89.85;101204.53;5043573;28;20052;-70
2022/11/29 04:19:08;;;;;;;23.67;22.17;;;;;;;6.86;90.01;101198.84;5049888;28;20045;-70
2022/11/29 04:22:06;;;;;;;28.93;26.40;;;;;;;6.78;90.02;101197.28;5034245;28;20059;-69
2022/11/29 04:24:51;;;;;;;25.23;23.40;;;;;;;6.69;89.90;101195.91;5055856;28;20048;-68
2022/11/29 04:27:27;;;;;;;25.37;23.67;;;;;;;6.63;90.64;101199.66;5042109;28;20064;-69
2022/11/29 04:30:05;;;;;;;25.17;23.37;;;;;;;6.54;90.77;101192.78;5037319;28;20056;-69
2022/11/29 04:32:38;;;;;;;26.10;23.80;;;;;;;6.58;90.82;101196.75;5041874;28;20056;-70
2022/11/29 04:35:43;;;;;;;22.97;21.37;;;;;;;6.51;90.81;101190.47;5036663;28;20064;-71
2022/11/29 04:38:48;;;;;;;21.70;20.20;;;;;;;6.50;90.91;101194.34;5045399;28;20064;-69
2022/11/29 04:41:41;;;;;;;24.87;23.20;;;;;;;6.58;90.94;101202.31;5058928;28;20064;-69
2022/11/29 04:44:39;;;;;;;29.40;26.53;;;;;;;6.63;90.67;101211.63;5038200;28;20049;-69
2022/11/29 04:47:29;;;;;;;30.90;28.00;;;;;;;6.78;90.35;101225.03;5041411;28;20056;-69
2022/11/29 04:49:59;;;;;;;30.55;27.30;;;;;;;6.95;90.06;101229.88;5035111;28;20523;-70
2022/11/29 04:52:54;;;;;;;31.92;28.52;;;;;;;7.02;89.50;101228.69;5075294;28;20049;-70
2022/11/29 04:55:39;;;;;;;31.93;28.83;;;;;;;7.21;89.23;101226.59;5037221;28;20045;-68
2022/11/29 04:58:24;;;;;;;31.00;28.20;;;;;;;7.40;88.76;101227.34;5041839;28;20053;-69
2022/11/29 05:00:51;;;;;;;30.10;27.33;;;;;;;7.47;88.53;101224.44;5037342;28;20053;-69
2022/11/29 05:03:41;;;;;;;30.73;27.87;;;;;;;7.34;88.13;101212.47;5034042;28;20049;-69
2022/11/29 05:06:23;;;;;;;23.70;22.20;;;;;;;7.25;87.49;101213.94;5034574;28;20478;-69
2022/11/29 05:08:55;;;;;;;24.37;22.70;;;;;;;7.15;88.20;101215.66;5042338;28;20140;-69
2022/11/29 05:11:39;;;;;;;25.27;23.27;;;;;;;6.99;88.03;101215.28;5036129;28;20049;-70
2022/11/29 05:14:24;;;;;;;22.67;21.10;;;;;;;6.78;88.34;101216.69;5038709;28;20049;-70
2022/11/29 05:17:25;;;;;;;21.47;19.97;;;;;;;6.69;88.67;101212.56;5039703;28;20053;-69
2022/11/29 05:20:03;;;;;;;24.73;23.20;;;;;;;6.66;89.25;101221.38;5033334;28;20060;-69
2022/11/29 05:22:41;;;;;;;39.00;36.17;;;;;;;6.69;89.30;101234.78;5038626;28;20056;-69
2022/11/29 05:25:30;;;;;;;25.87;23.93;;;;;;;6.66;88.92;101229.69;5040047;28;20084;-69
2022/11/29 05:28:00;;;;;;;26.70;24.10;;;;;;;6.70;89.32;101236.50;5035916;28;20132;-69
2022/11/29 05:31:02;;;;;;;23.73;22.10;;;;;;;6.62;88.98;101232.09;5038954;28;20049;-69
2022/11/29 05:33:51;;;;;;;25.63;23.63;;;;;;;6.70;89.09;101227.28;5043863;28;20052;-70
2022/11/29 05:36:38;;;;;;;27.43;25.20;;;;;;;6.63;89.16;101221.84;5047269;28;20049;-69
2022/11/29 05:39:21;;;;;;;28.37;25.57;;;;;;;6.74;89.03;101220.22;5039833;28;20045;-66
2022/11/29 05:42:06;;;;;;;28.00;25.70;;;;;;;6.78;88.71;101224.19;5037258;28;20049;-67
2022/11/29 05:44:40;;;;;;;29.37;26.63;;;;;;;6.85;88.92;101222.97;5036794;28;20049;-67
2022/11/29 05:47:09;;;;;;;28.13;25.87;;;;;;;6.87;88.68;101228.28;5040950;28;20103;-67
2022/11/29 05:49:43;;;;;;;;;;;;;;;6.66;89.17;101232.47;5046737;28;20041;-67
2022/11/29 05:52:25;;;;;;;27.20;25.00;;;;;;;6.89;88.83;101231.69;5033192;28;19928;-66
2022/11/29 05:55:01;;;;;;;29.60;27.13;;;;;;;6.95;88.73;101232.66;5035181;28;20057;-67
2022/11/29 05:57:53;;;;;;;28.03;25.70;;;;;;;6.97;88.39;101222.16;5037587;28;20049;-70
2022/11/29 06:00:20;;;;;;;28.43;25.87;;;;;;;6.98;88.61;101223.84;5038344;28;20053;-69
2022/11/29 06:03:05;;;;;;;25.90;23.90;;;;;;;6.99;88.28;101225.53;5042709;28;20060;-69
2022/11/29 06:05:45;;;;;;;23.70;22.27;;;;;;;6.90;88.50;101216.69;5041837;28;20389;-69
2022/11/29 06:08:17;;;;;;;;;;;;;;;6.62;88.96;101217.38;5037889;28;20055;-69
2022/11/29 06:11:12;;;;;;;20.27;19.17;;;;;;;6.68;88.83;101224.78;5035576;28;19939;-69
2022/11/29 06:13:54;;;;;;;21.73;20.43;;;;;;;6.70;89.17;101218.97;5038379;28;20045;-69
2022/11/29 06:16:42;;;;;;;23.43;21.63;;;;;;;6.60;89.08;101216.81;5039246;28;20045;-70
2022/11/29 06:19:47;;;;;;;20.70;19.60;;;;;;;6.53;89.10;101225.22;5036570;28;20056;-70
2022/11/29 06:22:20;;;;;;;23.03;21.33;;;;;;;6.57;89.42;101233.94;5032760;28;20064;-70
2022/11/29 06:25:05;;;;;;;21.77;20.23;;;;;;;6.50;89.15;101234.03;5047265;28;20048;-71
2022/11/29 06:27:58;;;;;;;23.80;22.40;;;;;;;6.41;89.50;101233.50;5034964;28;20057;-72
2022/11/29 06:30:32;;;;;;;21.00;19.70;;;;;;;6.43;89.76;101240.72;5033583;28;20055;-69
2022/11/29 06:33:16;;;;;;;23.50;22.00;;;;;;;6.40;89.84;101229.03;5038730;28;20499;-70
2022/11/29 06:35:52;;;;;;;21.93;20.57;;;;;;;6.46;89.90;101231.94;5036528;28;20419;-69
2022/11/29 06:38:27;;;;;;;21.07;19.80;;;;;;;6.45;89.86;101235.81;5034206;28;20050;-67
2022/11/29 06:40:58;;;;;;;23.60;21.87;;;;;;;6.46;89.90;101223.63;5036775;28;20048;-67
2022/11/29 06:43:28;;;;;;;23.07;21.43;;;;;;;6.49;89.94;101232.31;5034975;28;20077;-66
2022/11/29 06:46:09;;;;;;;21.93;20.57;;;;;;;6.48;90.05;101233.41;5032748;28;20138;-66
2022/11/29 06:49:07;;;;;;;21.63;19.83;;;;;;;6.41;90.03;101232.66;5030188;28;20037;-66
2022/11/29 06:51:52;;;;;;;26.83;24.43;;;;;;;6.49;90.06;101239.78;5035930;28;20052;-67
2022/11/29 06:55:15;;;;;;;22.33;20.83;;;;;;;6.48;89.97;101240.88;5040315;28;20045;-66
2022/11/29 06:58:12;;;;;;;23.30;21.53;;;;;;;6.45;90.09;101241.34;5049844;28;20044;-65
2022/11/29 07:00:48;;;;;;;20.87;19.77;;;;;;;6.39;90.33;101240.34;5034946;28;20060;-66
2022/11/29 07:03:27;;;;;;;30.10;28.07;;;;;;;6.31;90.44;101235.16;5032589;28;20429;-67
2022/11/29 07:05:55;;;;;;;21.23;19.93;;;;;;;6.32;90.48;101223.81;5039441;28;20060;-66
2022/11/29 07:08:24;;;;;;;23.60;21.93;;;;;;;6.39;90.55;101232.91;5042467;28;20056;-66
2022/11/29 07:10:53;;;;;;;22.93;21.37;;;;;;;6.36;90.46;101230.59;5038839;28;20049;-67
2022/11/29 07:13:21;;;;;;;25.33;23.33;;;;;;;6.26;90.72;101219.22;5037950;28;20074;-69
2022/11/29 07:16:00;;;;;;;24.03;21.97;;;;;;;6.25;90.72;101225.84;5041129;28;20053;-67
2022/11/29 07:18:39;;;;;;;23.00;21.40;;;;;;;6.24;91.08;101228.88;5032376;28;20124;-64
2022/11/29 07:21:18;;;;;;;23.63;22.17;;;;;;;6.24;91.39;101235.25;5036656;28;20057;-64
2022/11/29 07:24:14;;;;;;;25.53;23.53;;;;;;;6.17;91.16;101235.34;5036267;28;20057;-65
2022/11/29 07:26:48;;;;;;;28.10;25.93;;;;;;;6.22;91.02;101231.84;5032261;28;20412;-65
2022/11/29 07:29:38;;;;;;;40.93;38.43;;;;;;;6.28;91.03;101222.59;5036430;28;20042;-67
2022/11/29 07:32:34;;;;;;;24.27;22.53;;;;;;;6.20;91.18;101220.16;5032353;28;20060;-66
2022/11/29 07:35:04;;;;;;;23.80;22.33;;;;;;;6.23;91.30;101222.47;5033595;28;20045;-66
2022/11/29 07:37:35;;;;;;;48.15;45.72;;;;;;;6.20;91.10;101217.41;5044180;28;20064;-67
2022/11/29 07:40:02;;;;;;;33.93;31.90;;;;;;;6.32;91.17;101232.13;5042184;28;20045;-67
2022/11/29 07:42:45;;;;;;;26.20;24.07;;;;;;;6.23;90.88;101216.09;5039096;28;20075;-67
2022/11/29 07:45:30;;;;;;;24.53;22.83;;;;;;;6.35;91.09;101230.81;5037589;28;20056;-68
2022/11/29 07:47:58;;;;;;;33.60;31.70;;;;;;;6.27;91.05;101237.56;5038847;28;20041;-67
2022/11/29 07:50:26;;;;;;;26.33;23.90;;;;;;;6.24;91.10;101234.41;5042028;28;20049;-67
2022/11/29 07:52:54;;;;;;;27.67;25.70;;;;;;;6.14;91.34;101249.69;5037002;28;20057;-66
2022/11/29 07:55:24;;;;;;;24.17;22.77;;;;;;;6.10;91.48;101248.47;5035861;28;20053;-67
2022/11/29 07:57:52;;;;;;;26.07;24.27;;;;;;;6.05;91.56;101242.78;5038688;28;20045;-67
2022/11/29 08:00:19;;;;;;;25.00;23.33;;;;;;;6.06;91.58;101243.63;5034291;28;20049;-67
2022/11/29 08:02:49;;;;;;;24.43;23.03;;;;;;;6.04;91.41;101234.69;5040118;28;20045;-67
2022/11/29 08:05:16;;;;;;;44.10;41.40;;;;;;;5.96;92.15;101226.69;5042162;28;20059;-66
2022/11/29 08:07:43;;;;;;;26.37;24.47;;;;;;;6.00;92.24;101227.91;5038275;28;20045;-66
2022/11/29 08:10:13;;;;;;;27.27;25.30;;;;;;;5.88;92.55;101198.19;5040991;28;20148;-66
2022/11/29 08:12:46;;;;;;;26.10;24.40;;;;;;;6.04;92.95;101223.59;5034806;28;20492;-68
2022/11/29 08:15:14;;;;;;;39.83;37.57;;;;;;;6.09;93.06;101220.97;5035612;28;20045;-66
2022/11/29 08:17:41;;;;;;;26.67;24.63;;;;;;;6.17;92.96;101226.19;5034461;28;20050;-66
2022/11/29 08:20:09;;;;;;;25.13;23.53;;;;;;;6.22;92.91;101225.47;5038916;28;20049;-67
2022/11/29 08:22:37;;;;;;;25.13;23.43;;;;;;;6.22;93.00;101228.25;5040769;28;20060;-67
2022/11/29 08:25:06;;;;;;;24.13;22.37;;;;;;;6.31;92.78;101224.06;5041109;28;20053;-67
2022/11/29 08:27:33;;;;;;;25.27;22.97;;;;;;;6.27;92.89;101229.25;5040632;28;20061;-66
2022/11/29 08:29:59;;;;;;;47.13;44.50;;;;;;;6.29;92.86;101220.66;5035437;28;20049;-69
2022/11/29 08:32:27;;;;;;;25.73;23.97;;;;;;;6.31;92.69;101218.53;5039061;28;20049;-66
2022/11/29 08:34:55;;;;;;;23.67;21.73;;;;;;;6.23;92.90;101205.84;5035496;28;20045;-65
2022/11/29 08:37:22;;;;;;;23.70;21.63;;;;;;;6.21;92.97;101208.00;5036601;28;20495;-67
2022/11/29 08:39:48;;;;;;;31.57;29.67;;;;;;;6.34;92.88;101221.66;5036460;28;20045;-66
2022/11/29 08:42:15;;;;;;;24.57;22.73;;;;;;;6.47;93.00;101222.56;5038365;28;20042;-66
2022/11/29 08:44:42;;;;;;;23.87;22.23;;;;;;;6.47;92.94;101217.00;5039226;28;20048;-66
2022/11/29 08:50:01;;;;;;;24.47;22.87;;;;;;;6.68;92.98;101224.78;5042293;28;20053;-67
2022/11/29 08:55:24;;;;;;;35.70;33.50;;;;;;;6.87;92.50;101231.94;5032322;28;20053;-67
2022/11/29 08:57:53;;;;;;;44.60;41.85;;;;;;;6.91;92.48;101235.06;5036555;28;20041;-66
2022/11/29 09:00:22;;;;;;;40.30;38.10;;;;;;;7.03;92.37;101233.13;5038008;28;20053;-66
2022/11/29 09:02:49;;;;;;;24.08;22.67;;;;;;;7.14;92.55;101234.22;5037533;28;20041;-67
2022/11/29 09:05:16;;;;;;;25.37;23.37;;;;;;;7.30;92.76;101229.88;5040994;28;20064;-67
2022/11/29 09:07:45;;;;;;;35.13;32.73;;;;;;;7.46;92.14;101237.50;5037682;28;20061;-65
2022/11/29 09:10:11;;;;;;;24.40;22.67;;;;;;;7.50;91.94;101240.63;5036786;28;20060;-67
2022/11/29 09:12:39;;;;;;;24.40;22.77;;;;;;;7.63;91.84;101236.75;5036780;28;20061;-68
2022/11/29 09:15:08;;;;;;;23.20;21.70;;;;;;;7.76;91.55;101231.75;5041249;28;20152;-67
2022/11/29 09:17:35;;;;;;;29.40;26.90;;;;;;;7.93;91.31;101231.84;5039456;28;20144;-67
2022/11/29 09:20:06;;;;;;;23.40;21.90;;;;;;;8.07;90.87;101212.94;5046428;28;20129;-68
2022/11/29 09:22:33;;;;;;;26.27;24.47;;;;;;;8.08;90.00;101222.94;5041961;28;20060;-67
2022/11/29 09:25:00;;;;;;;24.17;22.87;;;;;;;8.02;89.70;101232.28;5036703;28;20061;-67
2022/11/29 09:27:27;;;;;;;30.57;27.93;;;;;;;8.01;89.37;101238.94;5044055;28;20052;-68
2022/11/29 09:29:53;;;;;;;39.77;37.37;;;;;;;7.97;89.14;101234.97;5040096;28;20053;-67
2022/11/29 09:32:20;;;;;;;31.77;29.23;;;;;;;7.96;89.02;101233.25;5045784;28;20044;-66
2022/11/29 09:34:47;;;;;;;25.70;23.63;;;;;;;7.88;89.30;101234.50;5041333;28;20056;-67
2022/11/29 09:37:14;;;;;;;22.47;21.17;;;;;;;7.78;89.14;101240.69;5042903;28;20106;-66
2022/11/29 09:39:40;;;;;;;23.43;22.10;;;;;;;7.66;89.30;101225.97;5041956;28;20501;-67
2022/11/29 09:42:34;;;;;;;25.67;23.67;;;;;;;7.64;89.19;101242.06;5041831;28;20045;-67
2022/11/29 09:45:05;;;;;;;24.80;22.77;;;;;;;7.73;89.49;101231.41;5039586;28;20061;-67
2022/11/29 09:47:56;;;;;;;43.27;40.40;;;;;;;7.84;89.43;101242.50;5041463;28;20060;-67
2022/11/29 09:50:41;;;;;;;43.00;40.50;;;;;;;7.98;89.15;101245.84;5040138;28;20046;-66
2022/11/29 09:53:43;;;;;;;24.70;23.03;;;;;;;8.01;89.13;101247.28;5041111;28;20076;-67
2022/11/29 09:56:33;;;;;;;24.13;22.43;;;;;;;8.09;89.28;101244.09;5038647;28;20059;-67
2022/11/29 09:59:04;;;;;;;27.38;25.13;;;;;;;8.25;88.93;101239.69;5038817;28;20488;-67
2022/11/29 10:01:41;;;;;;;23.80;22.40;;;;;;;8.38;88.69;101246.94;5040771;28;20064;-67
2022/11/29 10:04:15;;;;;;;29.40;27.10;;;;;;;8.52;88.64;101239.97;5039248;28;20055;-64
2022/11/29 10:06:49;;;;;;;24.80;23.17;;;;;;;8.49;88.12;101232.13;5038397;28;20370;-64
2022/11/29 10:09:20;;;;;;;24.47;22.67;;;;;;;8.68;88.02;101244.72;5040448;28;20052;-66
2022/11/29 10:12:11;;;;;;;25.97;24.03;;;;;;;8.73;87.38;101235.63;5037892;28;20060;-68
2022/11/29 10:14:48;;;;;;;37.80;35.73;;;;;;;8.91;87.34;101237.31;5040870;28;20053;-66
2022/11/29 10:17:30;;;;;;;32.83;30.63;;;;;;;9.10;86.79;101237.91;5089454;27;20175;-67
2022/11/29 10:20:09;;;;;;;22.90;21.50;;;;;;;9.25;86.12;101244.53;5093856;28;20063;-67
2022/11/29 10:22:52;;;;;;;28.50;26.20;;;;;;;9.50;85.78;101223.72;5100137;28;20050;-67
2022/11/29 10:25:30;;;;;;;26.77;24.73;;;;;;;9.59;84.53;101232.50;5094471;28;20052;-66
2022/11/29 10:27:57;;;;;;;26.10;24.03;;;;;;;9.61;84.51;101239.50;5080315;28;20051;-66
2022/11/29 10:30:24;;;;;;;29.47;27.40;;;;;;;9.64;84.12;101236.22;5098062;28;20055;-67
2022/11/29 10:32:56;;;;;;;25.57;23.43;;;;;;;9.60;84.41;101223.84;5099402;28;20043;-67
2022/11/29 10:35:23;;;;;;;37.83;35.63;;;;;;;9.92;84.32;101237.13;5096662;28;20055;-67
2022/11/29 10:37:56;;;;;;;25.63;23.83;;;;;;;10.24;84.08;101228.00;5099988;28;20051;-67
2022/11/29 10:40:47;;;;;;;24.63;22.80;;;;;;;10.27;82.79;101227.53;5097139;28;20047;-67
2022/11/29 10:43:14;;;;;;;36.63;33.83;;;;;;;10.47;83.06;101236.13;5096124;28;20052;-67
2022/11/29 10:45:54;;;;;;;35.17;32.60;;;;;;;10.91;83.17;101234.03;5092292;28;20052;-67
2022/11/29 10:48:26;;;;;;;42.93;40.13;;;;;;;11.25;82.09;101239.34;5101597;28;20410;-66
2022/11/29 10:50:53;;;;;;;26.80;24.63;;;;;;;11.49;81.66;101223.00;5092290;28;20087;-68
2022/11/29 10:53:31;;;;;;;26.67;24.57;;;;;;;12.02;81.80;101217.41;5097945;28;20052;-66
2022/11/29 10:56:04;;;;;;;25.20;23.07;;;;;;;12.66;80.83;101218.97;5096444;28;20255;-64
2022/11/29 10:58:32;;;;;;;25.27;23.37;;;;;;;13.96;80.91;101221.06;5099480;28;21330;-68
2022/11/29 11:01:05;;;;;;;22.90;21.15;;;;;;;15.10;78.72;101217.25;5098688;28;20059;-66
2022/11/29 11:03:48;;;;;;;24.55;22.75;;;;;;;15.32;74.78;101225.22;5099344;28;20051;-65
2022/11/29 11:06:21;;;;;;;24.33;22.30;;;;;;;15.83;73.05;101213.44;5101268;28;20043;-65
2022/11/29 11:08:52;;;;;;;22.88;21.25;;;;;;;16.41;72.83;101198.31;5104337;28;20043;-65
2022/11/29 11:11:31;;;;;;;23.70;22.20;;;;;;;17.19;71.44;101193.13;5103615;28;20043;-64
2022/11/29 11:14:19;;;;;;;24.80;23.10;;;;;;;17.33;66.42;101187.50;5080228;28;20043;-65
2022/11/29 11:16:46;;;;;;;24.85;23.05;;;;;;;17.06;66.46;101183.47;5083885;28;20052;-65
2022/11/29 11:19:33;;;;;;;24.05;22.30;;;;;;;16.84;63.74;101197.41;5081351;28;20521;-65
2022/11/29 11:22:02;;;;;;;22.20;20.80;;;;;;;16.38;63.56;101167.06;5082214;28;20040;-65
2022/11/29 11:24:35;;;;;;;30.45;28.58;;;;;;;16.43;62.74;101176.28;5075625;28;20075;-64
2022/11/29 11:27:02;;;;;;;46.05;43.33;;;;;;;16.35;62.95;101185.44;5075520;28;20045;-65
2022/11/29 11:29:38;;;;;;;24.02;22.42;;;;;;;16.52;63.27;101174.44;5060539;28;20411;-65
2022/11/29 11:32:18;;;;;;;21.80;20.60;;;;;;;17.18;62.15;101181.00;5067179;28;20059;-65
2022/11/29 11:34:56;;;;;;;23.88;22.27;;;;;;;16.69;59.69;101161.78;5041091;28;20145;-65
2022/11/29 11:37:32;;;;;;;22.60;21.15;;;;;;;16.56;60.85;101163.41;5058883;28;20049;-64
2022/11/29 11:40:30;;;;;;;23.83;22.33;;;;;;;16.68;60.84;101160.94;5061970;28;20460;-65
2022/11/29 11:43:00;;;;;;;38.20;36.20;;;;;;;17.48;61.26;101162.66;5061027;28;20059;-65
2022/11/29 11:45:35;;;;;;;24.58;22.77;;;;;;;17.93;60.06;101143.09;5057080;28;20102;-65
2022/11/29 11:48:11;;;;;;;27.02;24.95;;;;;;;18.73;59.68;101139.84;5059409;28;20052;-66
2022/11/29 11:50:55;;;;;;;25.27;23.38;;;;;;;19.66;58.41;101154.09;5064713;28;20048;-65
2022/11/29 11:53:26;;;;;;;25.02;23.33;;;;;;;20.08;55.79;101131.88;5055708;28;20048;-65
2022/11/29 11:55:53;;;;;;;24.40;22.80;;;;;;;19.98;53.77;101130.19;5047751;28;20057;-66
2022/11/29 11:58:31;;;;;;;26.20;23.92;;;;;;;19.88;54.21;101119.97;5063073;28;21932;-65
2022/11/29 12:01:14;;;;;;;26.25;24.45;;;;;;;20.19;53.32;101129.53;5067471;28;20419;-65
2022/11/29 12:04:11;;;;;;;49.10;46.42;;;;;;;20.13;53.54;101118.34;5058792;28;20041;-65
2022/11/29 12:06:45;;;;;;;33.08;31.15;;;;;;;20.25;53.17;101099.88;5040122;28;20055;-65
2022/11/29 12:09:23;;;;;;;28.80;26.73;;;;;;;20.50;52.18;101116.06;5058365;28;20053;-66